Time;durP1;ratioP1;P1;durP2;ratioP2;P2;SDS_P1;SDS_P2;PMS_P1;PMS_P2;Temp;Humidity;BMP_temperature;BMP_pressure;BME280_temperature;BME280_humidity;BME280_pressure;Samples;Min_cycle;Max_cycle;Signal;HPM_P1;HPM_P2
2021/05/05 00:02:01;;;;;;;1.25;0.98;;;10.20;76.00;;;;;;5053041;28;20033;-74
2021/05/05 00:04:26;;;;;;;2.10;1.10;;;10.20;75.50;;;;;;5051743;28;20043;-74
2021/05/05 00:06:55;;;;;;;1.05;0.80;;;10.30;75.20;;;;;;5052930;28;20140;-75
2021/05/05 00:09:20;;;;;;;1.88;0.80;;;10.20;75.00;;;;;;5052999;28;20111;-75
2021/05/05 00:11:46;;;;;;;3.10;0.95;;;10.10;75.10;;;;;;5052976;28;20053;-74
2021/05/05 00:14:13;;;;;;;0.80;0.80;;;10.20;75.30;;;;;;5052930;28;20040;-75
2021/05/05 00:16:39;;;;;;;2.20;0.90;;;10.20;75.20;;;;;;5052938;28;20056;-75
2021/05/05 00:19:05;;;;;;;1.10;1.00;;;10.20;75.80;;;;;;5052852;28;20064;-74
2021/05/05 00:21:32;;;;;;;1.40;0.90;;;10.30;77.20;;;;;;5052855;28;20025;-76
2021/05/05 00:23:57;;;;;;;1.98;0.40;;;10.20;78.30;;;;;;5052787;28;20389;-74
2021/05/05 00:26:23;;;;;;;1.25;0.50;;;10.10;80.20;;;;;;5052955;28;20025;-73
2021/05/05 00:28:49;;;;;;;0.88;0.35;;;9.80;80.80;;;;;;5052789;28;20040;-73
2021/05/05 00:31:16;;;;;;;1.10;0.10;;;9.60;81.10;;;;;;5051457;28;20496;-73
2021/05/05 00:33:42;;;;;;;0.40;0.30;;;9.30;82.40;;;;;;5052884;28;20025;-74
2021/05/05 00:36:07;;;;;;;0.45;0.15;;;9.10;83.60;;;;;;5054622;28;20052;-73
2021/05/05 00:38:33;;;;;;;0.20;0.20;;;9.00;84.00;;;;;;5058599;28;20029;-73
2021/05/05 00:40:59;;;;;;;3.72;0.30;;;9.00;84.40;;;;;;5065692;28;20044;-73
2021/05/05 00:43:24;;;;;;;0.70;0.30;;;9.00;84.90;;;;;;5071541;28;20041;-73
2021/05/05 00:45:50;;;;;;;1.52;0.20;;;8.90;85.90;;;;;;5077438;28;20029;-73
2021/05/05 00:48:15;;;;;;;0.20;0.20;;;8.80;86.50;;;;;;5059116;28;20050;-73
2021/05/05 00:50:43;;;;;;;0.13;0.13;;;8.80;86.50;;;;;;5053374;28;20075;-73
2021/05/05 00:53:08;;;;;;;1.25;0.20;;;8.80;87.80;;;;;;5052815;28;20406;-73
2021/05/05 00:55:34;;;;;;;0.10;0.10;;;8.70;87.90;;;;;;5052625;28;20136;-73
2021/05/05 00:58:00;;;;;;;1.65;0.20;;;8.70;87.70;;;;;;5051530;28;20048;-73
2021/05/05 01:00:26;;;;;;;0.20;0.20;;;8.80;87.30;;;;;;5052511;28;20099;-74
2021/05/05 01:02:52;;;;;;;1.38;0.22;;;8.80;87.60;;;;;;5052595;28;20025;-74
2021/05/05 01:05:18;;;;;;;0.68;0.10;;;8.80;87.60;;;;;;5052500;28;20029;-74
2021/05/05 01:07:43;;;;;;;0.10;0.10;;;8.80;87.60;;;;;;5052536;28;20120;-74
2021/05/05 01:10:11;;;;;;;2.65;0.20;;;8.90;87.50;;;;;;5052511;28;20028;-74
2021/05/05 01:12:37;;;;;;;0.80;0.28;;;8.90;87.00;;;;;;5056312;28;20020;-73
2021/05/05 01:15:05;;;;;;;0.22;0.20;;;8.90;87.00;;;;;;5054912;28;20488;-74
2021/05/05 01:17:32;;;;;;;0.20;0.20;;;8.90;87.00;;;;;;5056111;28;20025;-74
2021/05/05 01:19:58;;;;;;;0.30;0.20;;;8.80;87.00;;;;;;5056161;28;20013;-74
2021/05/05 01:22:24;;;;;;;0.10;0.10;;;8.70;87.70;;;;;;5056060;28;20029;-74
2021/05/05 01:24:49;;;;;;;0.30;0.15;;;8.60;87.60;;;;;;5056081;28;20046;-74
2021/05/05 01:27:16;;;;;;;0.30;0.20;;;8.60;88.00;;;;;;5056128;28;20036;-74
2021/05/05 01:29:41;;;;;;;0.20;0.10;;;8.60;87.90;;;;;;5056144;28;20025;-73
2021/05/05 01:32:07;;;;;;;1.10;0.15;;;8.60;87.60;;;;;;5056066;28;20490;-74
2021/05/05 01:34:34;;;;;;;0.63;0.20;;;8.60;87.80;;;;;;5055904;28;20021;-73
2021/05/05 01:37:00;;;;;;;0.30;0.20;;;8.70;88.00;;;;;;5055807;28;20114;-74
2021/05/05 01:39:25;;;;;;;0.15;0.10;;;8.70;88.10;;;;;;5056292;28;20063;-75
2021/05/05 01:41:51;;;;;;;2.00;0.73;;;8.70;88.10;;;;;;5057522;28;20041;-74
2021/05/05 01:44:30;;;;;;;1.55;0.57;;;8.50;88.30;;;;;;5056483;28;20120;-75
2021/05/05 01:46:56;;;;;;;0.55;0.35;;;8.30;88.30;;;;;;5056244;28;20032;-74
2021/05/05 01:49:23;;;;;;;1.50;0.40;;;8.30;88.40;;;;;;5054365;28;20402;-74
2021/05/05 01:51:51;;;;;;;1.45;0.43;;;8.20;88.60;;;;;;5055395;28;20096;-74
2021/05/05 01:54:17;;;;;;;2.00;0.50;;;8.30;88.80;;;;;;5055674;28;20024;-74
2021/05/05 01:56:43;;;;;;;3.03;0.45;;;8.20;88.50;;;;;;5055391;28;20027;-74
2021/05/05 01:59:08;;;;;;;0.38;0.20;;;8.10;88.90;;;;;;5055580;28;20107;-74
2021/05/05 02:01:34;;;;;;;0.60;0.35;;;8.10;89.20;;;;;;5055427;28;20029;-74
2021/05/05 02:04:02;;;;;;;2.50;0.50;;;8.20;89.00;;;;;;5055253;28;20040;-74
2021/05/05 02:06:31;;;;;;;1.33;0.20;;;8.10;88.80;;;;;;5055350;28;20107;-74
2021/05/05 02:08:58;;;;;;;0.52;0.28;;;8.10;88.80;;;;;;5055038;28;20065;-74
2021/05/05 02:11:24;;;;;;;0.90;0.28;;;8.10;88.70;;;;;;5055067;28;20441;-74
2021/05/05 02:13:50;;;;;;;1.48;0.20;;;8.00;88.60;;;;;;5055063;28;20504;-74
2021/05/05 02:16:15;;;;;;;0.15;0.15;;;8.00;88.60;;;;;;5054938;28;20025;-74
2021/05/05 02:18:41;;;;;;;0.73;0.10;;;8.00;87.80;;;;;;5054952;28;20029;-74
2021/05/05 02:21:07;;;;;;;0.82;0.10;;;7.80;86.10;;;;;;5054794;28;20017;-74
2021/05/05 02:23:33;;;;;;;1.13;0.20;;;7.80;85.70;;;;;;5054792;28;20029;-74
2021/05/05 02:25:59;;;;;;;0.55;0.17;;;7.70;85.10;;;;;;5053406;28;20436;-74
2021/05/05 02:28:25;;;;;;;0.32;0.10;;;7.70;84.80;;;;;;5054769;28;20047;-74
2021/05/05 02:30:50;;;;;;;1.17;0.30;;;7.70;83.40;;;;;;5054643;28;20029;-74
2021/05/05 02:33:16;;;;;;;1.27;0.20;;;7.70;83.40;;;;;;5054679;28;20094;-74
2021/05/05 02:35:42;;;;;;;1.42;0.20;;;7.70;83.70;;;;;;5054603;28;20032;-74
2021/05/05 02:38:07;;;;;;;0.50;0.20;;;7.70;83.60;;;;;;5054568;28;20040;-74
2021/05/05 02:40:34;;;;;;;1.05;0.30;;;7.70;83.70;;;;;;5054363;28;20120;-74
2021/05/05 02:42:59;;;;;;;0.90;0.20;;;7.70;82.60;;;;;;5054391;28;20060;-74
2021/05/05 02:45:26;;;;;;;0.55;0.20;;;7.60;82.20;;;;;;5054501;28;20478;-74
2021/05/05 02:47:51;;;;;;;0.28;0.20;;;7.60;82.80;;;;;;5054255;28;20025;-74
2021/05/05 02:50:17;;;;;;;1.15;0.30;;;7.60;82.70;;;;;;5054358;28;20029;-73
2021/05/05 02:52:43;;;;;;;0.60;0.15;;;7.50;82.90;;;;;;5054336;28;20496;-74
2021/05/05 02:55:10;;;;;;;0.60;0.10;;;7.40;84.00;;;;;;5054324;28;20033;-74
2021/05/05 02:57:36;;;;;;;0.32;0.20;;;7.40;83.20;;;;;;5054204;28;20100;-74
2021/05/05 03:00:07;;;;;;;1.02;0.15;;;7.40;82.70;;;;;;5054203;28;20116;-74
2021/05/05 03:02:33;;;;;;;0.95;0.13;;;7.40;82.70;;;;;;5052783;28;20025;-74
2021/05/05 03:04:59;;;;;;;2.00;0.28;;;7.30;83.30;;;;;;5054062;28;20033;-74
2021/05/05 03:07:24;;;;;;;1.27;0.25;;;7.00;84.60;;;;;;5053946;28;20036;-74
2021/05/05 03:09:50;;;;;;;0.70;0.30;;;7.10;85.10;;;;;;5053878;28;20033;-74
2021/05/05 03:12:15;;;;;;;1.30;0.40;;;7.20;85.20;;;;;;5054017;28;20095;-73
2021/05/05 03:14:41;;;;;;;0.80;0.32;;;7.30;85.20;;;;;;5053895;28;20474;-73
2021/05/05 03:17:07;;;;;;;0.73;0.20;;;7.30;85.20;;;;;;5053857;28;20044;-74
2021/05/05 03:19:32;;;;;;;2.92;0.32;;;7.40;85.00;;;;;;5053865;28;20096;-74
2021/05/05 03:21:58;;;;;;;0.40;0.20;;;7.40;83.70;;;;;;5053745;28;20434;-74
2021/05/05 03:24:23;;;;;;;1.13;0.20;;;7.40;83.50;;;;;;5053641;28;20025;-74
2021/05/05 03:26:49;;;;;;;0.57;0.20;;;7.40;83.60;;;;;;5053686;28;20021;-72
2021/05/05 03:29:16;;;;;;;1.55;0.20;;;7.40;84.10;;;;;;5053504;28;20116;-72
2021/05/05 03:31:42;;;;;;;0.57;0.20;;;7.40;84.50;;;;;;5053554;28;20462;-72
2021/05/05 03:34:08;;;;;;;5.13;2.20;;;7.40;84.40;;;;;;5053000;28;20032;-72
2021/05/05 03:36:33;;;;;;;2.42;0.55;;;7.30;83.70;;;;;;5053529;28;20029;-72
2021/05/05 03:39:00;;;;;;;3.03;0.40;;;7.40;83.50;;;;;;5053453;28;20040;-72
2021/05/05 03:41:26;;;;;;;1.58;0.40;;;7.30;83.50;;;;;;5053369;28;20037;-73
2021/05/05 03:43:52;;;;;;;2.83;0.50;;;7.30;83.70;;;;;;5053398;28;20103;-72
2021/05/05 03:46:18;;;;;;;5.68;2.22;;;7.30;84.50;;;;;;5053345;28;20029;-72
2021/05/05 03:48:43;;;;;;;1.08;0.40;;;7.20;85.20;;;;;;5052963;28;20072;-73
2021/05/05 03:51:10;;;;;;;0.77;0.57;;;7.10;84.50;;;;;;5053020;28;20028;-73
2021/05/05 03:53:36;;;;;;;3.20;0.50;;;7.00;85.30;;;;;;5053213;28;20020;-73
2021/05/05 03:56:01;;;;;;;1.75;0.40;;;6.70;85.50;;;;;;5053125;28;20017;-73
2021/05/05 03:58:27;;;;;;;2.97;0.60;;;6.50;84.90;;;;;;5053052;28;20155;-75
2021/05/05 04:00:53;;;;;;;2.97;0.50;;;6.30;84.30;;;;;;5053143;28;20513;-73
2021/05/05 04:03:18;;;;;;;3.08;1.48;;;6.20;85.10;;;;;;5053043;28;20440;-73
2021/05/05 04:05:44;;;;;;;3.55;0.70;;;6.00;85.40;;;;;;5053041;28;20283;-74
2021/05/05 04:08:10;;;;;;;2.95;0.40;;;6.10;85.50;;;;;;5052776;28;20037;-74
2021/05/05 04:10:35;;;;;;;1.30;0.73;;;6.10;85.50;;;;;;5052978;28;20028;-73
2021/05/05 04:13:04;;;;;;;2.58;0.90;;;6.10;84.90;;;;;;5052907;28;20462;-73
2021/05/05 04:15:30;;;;;;;1.23;0.65;;;6.10;84.80;;;;;;5052949;28;20045;-73
2021/05/05 04:17:56;;;;;;;1.38;0.50;;;6.10;85.40;;;;;;5052653;28;20031;-73
2021/05/05 04:20:22;;;;;;;0.30;0.20;;;6.00;83.90;;;;;;5052783;28;20025;-74
2021/05/05 04:22:48;;;;;;;0.70;0.30;;;6.00;84.70;;;;;;5052781;28;20058;-73
2021/05/05 04:25:16;;;;;;;1.58;0.40;;;6.00;84.00;;;;;;5052697;28;20596;-72
2021/05/05 04:27:42;;;;;;;0.60;0.50;;;5.80;83.90;;;;;;5052575;28;20021;-73
2021/05/05 04:30:12;;;;;;;1.52;0.45;;;5.80;85.50;;;;;;5052715;28;20501;-73
2021/05/05 04:32:39;;;;;;;0.22;0.10;;;5.80;85.20;;;;;;5052656;28;20024;-74
2021/05/05 04:35:05;;;;;;;3.05;0.22;;;5.80;84.50;;;;;;5052688;28;20029;-74
2021/05/05 04:37:30;;;;;;;1.95;0.40;;;5.90;85.20;;;;;;5057802;28;20024;-74
2021/05/05 04:39:56;;;;;;;1.75;0.40;;;6.00;85.20;;;;;;5054633;28;20045;-73
2021/05/05 04:42:21;;;;;;;2.38;0.43;;;5.90;85.00;;;;;;5053111;28;20036;-73
2021/05/05 04:44:47;;;;;;;0.30;0.30;;;5.90;85.10;;;;;;5052618;28;20021;-73
2021/05/05 04:47:12;;;;;;;2.45;0.43;;;6.00;85.40;;;;;;5054598;28;20028;-73
2021/05/05 04:49:38;;;;;;;1.13;0.40;;;6.10;85.20;;;;;;5056624;28;20044;-73
2021/05/05 04:52:04;;;;;;;1.20;0.60;;;6.20;85.20;;;;;;5056456;28;20393;-73
2021/05/05 04:54:29;;;;;;;1.35;0.80;;;6.20;85.20;;;;;;5056541;28;20029;-73
2021/05/05 04:56:55;;;;;;;1.65;0.73;;;6.20;85.10;;;;;;5056486;28;20031;-72
2021/05/05 04:59:20;;;;;;;1.55;0.80;;;6.30;84.90;;;;;;5056364;28;20461;-72
2021/05/05 05:01:46;;;;;;;0.52;0.40;;;6.30;84.70;;;;;;5056274;28;20036;-73
2021/05/05 05:04:12;;;;;;;3.13;0.90;;;6.30;85.10;;;;;;5056152;28;20017;-73
2021/05/05 05:06:37;;;;;;;2.13;0.55;;;6.30;85.30;;;;;;5056210;28;20410;-73
2021/05/05 05:09:04;;;;;;;1.00;0.50;;;6.20;85.40;;;;;;5056062;28;20033;-74
2021/05/05 05:11:29;;;;;;;0.95;0.38;;;6.40;85.10;;;;;;5056033;28;20124;-74
2021/05/05 05:13:55;;;;;;;0.85;0.38;;;6.50;84.30;;;;;;5054760;28;20079;-74
2021/05/05 05:16:20;;;;;;;1.88;0.73;;;6.60;83.80;;;;;;5055940;28;20032;-74
2021/05/05 05:18:46;;;;;;;1.17;0.70;;;6.70;83.90;;;;;;5055795;28;20024;-74
2021/05/05 05:21:11;;;;;;;1.27;0.70;;;6.80;83.60;;;;;;5055778;28;20114;-75
2021/05/05 05:23:37;;;;;;;1.30;0.80;;;6.90;83.20;;;;;;5055665;28;20021;-75
2021/05/05 05:26:03;;;;;;;1.63;1.00;;;7.00;83.10;;;;;;5055876;28;20025;-74
2021/05/05 05:28:29;;;;;;;1.63;1.05;;;7.10;82.80;;;;;;5055393;28;20037;-74
2021/05/05 05:30:54;;;;;;;1.92;0.85;;;7.20;82.20;;;;;;5055489;28;20029;-74
2021/05/05 05:33:20;;;;;;;0.50;0.50;;;7.10;81.40;;;;;;5055456;28;20039;-75
2021/05/05 05:35:46;;;;;;;0.57;0.30;;;7.00;81.60;;;;;;5055387;28;20381;-74
2021/05/05 05:38:12;;;;;;;2.55;0.20;;;6.90;82.00;;;;;;5055364;28;20060;-75
2021/05/05 05:40:39;;;;;;;0.75;0.38;;;6.90;81.20;;;;;;5054832;28;20044;-74
2021/05/05 05:43:04;;;;;;;1.10;0.50;;;6.80;81.00;;;;;;5054421;28;20148;-73
2021/05/05 05:45:30;;;;;;;0.40;0.30;;;6.80;82.10;;;;;;5054311;28;20021;-74
2021/05/05 05:47:56;;;;;;;1.75;0.22;;;6.70;81.30;;;;;;5054029;28;20025;-75
2021/05/05 05:50:22;;;;;;;0.55;0.30;;;6.70;80.90;;;;;;5054228;28;20025;-75
2021/05/05 05:52:47;;;;;;;1.45;0.38;;;6.60;80.80;;;;;;5054240;28;20461;-75
2021/05/05 05:55:15;;;;;;;0.30;0.20;;;6.60;81.00;;;;;;5054238;28;20025;-75
2021/05/05 05:57:43;;;;;;;0.75;0.30;;;6.60;81.80;;;;;;5054181;28;20171;-74
2021/05/05 06:00:11;;;;;;;0.35;0.32;;;6.80;82.00;;;;;;5054160;28;20433;-73
2021/05/05 06:02:36;;;;;;;0.73;0.40;;;6.80;81.80;;;;;;5053979;28;20044;-75
2021/05/05 06:05:03;;;;;;;0.70;0.38;;;6.80;80.90;;;;;;5054224;28;20025;-75
2021/05/05 06:07:29;;;;;;;1.20;0.70;;;6.80;82.00;;;;;;5054109;28;20025;-74
2021/05/05 06:09:54;;;;;;;0.60;0.30;;;6.90;81.90;;;;;;5054106;28;20040;-76
2021/05/05 06:12:21;;;;;;;2.70;0.82;;;6.90;81.90;;;;;;5054026;28;20509;-73
2021/05/05 06:14:46;;;;;;;1.88;0.68;;;6.80;81.60;;;;;;5053922;28;20025;-73
2021/05/05 06:17:12;;;;;;;0.38;0.30;;;6.80;81.40;;;;;;5053737;28;20044;-73
2021/05/05 06:19:37;;;;;;;0.55;0.30;;;6.80;82.30;;;;;;5053871;28;20547;-73
2021/05/05 06:22:03;;;;;;;1.48;0.50;;;6.60;82.50;;;;;;5053892;28;20028;-77
2021/05/05 06:24:29;;;;;;;1.20;0.55;;;6.60;82.90;;;;;;5053855;28;20017;-72
2021/05/05 06:26:55;;;;;;;2.28;0.68;;;6.60;83.20;;;;;;5053573;28;20048;-77
2021/05/05 06:29:21;;;;;;;4.72;1.05;;;6.40;82.50;;;;;;5053179;28;20037;-75
2021/05/05 06:31:46;;;;;;;4.28;1.05;;;6.20;84.20;;;;;;5053276;28;20027;-76
2021/05/05 06:34:12;;;;;;;4.78;1.02;;;6.20;84.50;;;;;;5053433;28;20519;-76
2021/05/05 06:36:38;;;;;;;6.03;1.45;;;6.10;84.10;;;;;;5053367;28;20454;-76
2021/05/05 06:39:08;;;;;;;4.07;1.63;;;6.10;82.70;;;;;;5033996;28;548625;-75
2021/05/05 06:41:41;;;;;;;5.47;1.27;;;6.00;82.30;;;;;;5054383;28;20055;-75
2021/05/05 06:44:07;;;;;;;6.05;2.10;;;6.00;82.00;;;;;;5054529;28;20069;-76
2021/05/05 06:46:34;;;;;;;9.85;2.13;;;6.00;80.80;;;;;;5054627;28;20033;-76
2021/05/05 06:49:00;;;;;;;7.70;2.45;;;6.00;79.10;;;;;;5054511;28;20441;-75
2021/05/05 06:51:27;;;;;;;7.63;2.08;;;5.80;80.00;;;;;;5054541;28;20029;-76
2021/05/05 06:53:52;;;;;;;7.32;1.73;;;5.80;80.20;;;;;;5054055;28;20040;-74
2021/05/05 06:56:18;;;;;;;5.68;1.77;;;5.90;80.60;;;;;;5054009;28;20543;-74
2021/05/05 06:58:44;;;;;;;9.55;1.90;;;6.00;78.70;;;;;;5053977;28;20025;-74
2021/05/05 07:01:10;;;;;;;7.78;1.80;;;6.20;79.10;;;;;;5053532;28;20025;-74
2021/05/05 07:03:35;;;;;;;7.57;1.38;;;6.30;78.00;;;;;;5054511;28;20424;-73
2021/05/05 07:06:02;;;;;;;5.03;1.33;;;6.40;78.20;;;;;;5054614;28;20112;-75
2021/05/05 07:08:28;;;;;;;6.10;1.70;;;6.50;78.20;;;;;;5058492;28;20049;-80
2021/05/05 07:10:54;;;;;;;11.55;2.00;;;6.60;78.10;;;;;;5069267;28;20055;-79
2021/05/05 07:13:20;;;;;;;8.60;1.73;;;6.60;78.30;;;;;;5055727;28;20029;-76
2021/05/05 07:15:46;;;;;;;13.43;1.70;;;6.80;77.90;;;;;;5054205;28;20180;-77
2021/05/05 07:18:12;;;;;;;9.68;1.75;;;6.80;77.00;;;;;;5053826;28;20057;-79
2021/05/05 07:20:37;;;;;;;8.85;1.83;;;6.90;77.40;;;;;;5053727;28;20028;-78
2021/05/05 07:23:03;;;;;;;11.20;2.08;;;7.00;76.80;;;;;;5053689;28;20494;-79
2021/05/05 07:25:28;;;;;;;5.82;1.70;;;7.00;75.40;;;;;;5053813;28;20021;-78
2021/05/05 07:27:54;;;;;;;10.88;2.00;;;6.90;76.50;;;;;;5053219;28;20028;-79
2021/05/05 07:30:20;;;;;;;5.60;1.70;;;6.80;78.10;;;;;;5053160;28;20021;-79
2021/05/05 07:32:46;;;;;;;8.32;1.92;;;6.70;77.10;;;;;;5052623;28;20389;-79
2021/05/05 07:35:11;;;;;;;5.82;1.65;;;6.70;76.40;;;;;;5053050;28;20025;-78
2021/05/05 07:38:12;;;;;;;6.47;1.88;;;6.70;77.60;;;;;;5053174;28;20024;-78
2021/05/05 07:50:49;;;;;;;14.77;2.70;;;7.90;75.90;;;;;;5053085;28;20039;-74
2021/05/05 07:53:15;;;;;;;14.07;3.97;;;8.50;73.70;;;;;;5053007;28;20103;-74
2021/05/05 07:55:40;;;;;;;13.65;2.30;;;8.80;69.50;;;;;;5053078;28;20027;-73
2021/05/05 07:58:06;;;;;;;10.00;2.00;;;8.60;68.00;;;;;;5052933;28;20092;-73
2021/05/05 08:00:32;;;;;;;12.68;2.20;;;8.40;69.00;;;;;;5051632;28;20021;-73
2021/05/05 08:02:58;;;;;;;10.27;2.42;;;8.60;67.90;;;;;;5052818;28;20025;-73
2021/05/05 08:05:24;;;;;;;10.20;1.83;;;9.00;68.70;;;;;;5052970;28;20435;-74
2021/05/05 08:07:53;;;;;;;8.18;1.67;;;9.50;66.70;;;;;;5052757;28;20061;-73
2021/05/05 08:10:19;;;;;;;7.38;1.95;;;9.70;66.30;;;;;;5052863;28;20386;-74
2021/05/05 08:12:44;;;;;;;8.55;1.92;;;9.80;66.30;;;;;;5052902;28;20040;-73
2021/05/05 08:15:11;;;;;;;5.55;1.73;;;10.10;63.80;;;;;;5052707;28;20377;-73
2021/05/05 08:17:36;;;;;;;7.68;1.80;;;10.10;62.00;;;;;;5052688;28;20032;-73
2021/05/05 08:20:04;;;;;;;3.95;1.35;;;10.30;62.40;;;;;;5052526;28;20058;-73
2021/05/05 08:22:30;;;;;;;8.88;1.75;;;10.30;59.40;;;;;;5052632;28;20029;-75
2021/05/05 08:24:55;;;;;;;10.02;1.30;;;10.10;58.30;;;;;;5052645;28;20398;-73
2021/05/05 08:27:24;;;;;;;11.05;1.75;;;9.50;58.30;;;;;;5052698;28;20403;-73
2021/05/05 08:29:52;;;;;;;5.85;1.60;;;9.40;59.40;;;;;;5052447;28;20032;-74
2021/05/05 08:32:18;;;;;;;6.68;1.50;;;9.20;59.20;;;;;;5052484;28;20029;-78
2021/05/05 08:34:44;;;;;;;5.93;1.42;;;9.10;59.50;;;;;;5052731;28;20027;-80
2021/05/05 08:37:10;;;;;;;9.15;1.60;;;8.90;60.20;;;;;;5052782;28;20096;-79
2021/05/05 08:39:36;;;;;;;4.97;1.55;;;8.80;58.90;;;;;;5052342;28;20478;-79
2021/05/05 08:42:01;;;;;;;5.07;1.42;;;8.30;57.20;;;;;;5052460;28;20064;-79
2021/05/05 08:44:27;;;;;;;5.13;1.63;;;8.30;56.20;;;;;;5052506;28;20021;-79
2021/05/05 08:46:53;;;;;;;5.00;1.80;;;8.20;55.30;;;;;;5052571;28;20363;-77
2021/05/05 08:49:19;;;;;;;10.80;1.60;;;8.00;55.50;;;;;;5052536;28;20134;-79
2021/05/05 08:51:46;;;;;;;7.40;1.55;;;7.90;56.40;;;;;;5052404;28;20021;-78
2021/05/05 08:54:12;;;;;;;6.10;1.20;;;7.80;56.80;;;;;;5052463;28;20029;-78
2021/05/05 08:56:39;;;;;;;3.00;1.10;;;8.00;55.90;;;;;;5052491;28;20505;-78
2021/05/05 08:59:07;;;;;;;4.90;1.20;;;8.10;55.60;;;;;;5052209;28;20053;-76
2021/05/05 09:01:34;;;;;;;7.57;1.92;;;8.30;57.30;;;;;;5052287;28;20017;-78
2021/05/05 09:03:59;;;;;;;7.70;1.40;;;8.50;56.90;;;;;;5052298;28;20025;-79
2021/05/05 09:06:44;;;;;;;6.95;1.60;;;8.70;55.40;;;;;;5050936;28;20378;-78
2021/05/05 09:09:10;;;;;;;6.32;1.10;;;8.60;54.30;;;;;;5051884;28;20113;-79
2021/05/05 09:11:46;;;;;;;6.57;1.45;;;8.50;55.40;;;;;;5052141;28;20017;-79
2021/05/05 09:14:12;;;;;;;5.68;1.45;;;8.50;55.00;;;;;;5051973;28;20536;-78
2021/05/05 09:16:38;;;;;;;7.25;2.08;;;8.40;55.30;;;;;;5050714;28;20151;-78
2021/05/05 09:19:06;;;;;;;7.43;1.77;;;8.60;56.70;;;;;;5051400;28;20028;-79
2021/05/05 09:21:33;;;;;;;7.78;1.45;;;8.70;55.70;;;;;;5050804;28;20408;-78
2021/05/05 09:24:29;;;;;;;3.40;1.33;;;8.60;53.20;;;;;;5051836;28;20398;-78
2021/05/05 09:27:00;;;;;;;;;;;8.30;54.70;;;;;;5051068;28;20120;-79
2021/05/05 09:29:48;;;;;;;7.55;1.25;;;8.60;55.30;;;;;;5051816;28;19958;-78
2021/05/05 09:32:23;;;;;;;7.20;1.30;;;9.00;53.60;;;;;;5052543;28;20078;-77
2021/05/05 09:34:56;;;;;;;;;;;8.80;51.20;;;;;;5056267;28;20054;-78
2021/05/05 09:37:24;;;;;;;7.65;1.52;;;8.80;50.40;;;;;;5055711;28;19904;-79
2021/05/05 09:40:15;;;;;;;6.13;1.60;;;8.80;49.70;;;;;;5055404;28;20482;-79
2021/05/05 09:42:41;;;;;;;14.32;1.75;;;8.80;49.80;;;;;;5055669;28;20021;-80
2021/05/05 09:45:10;;;;;;;8.52;2.00;;;8.80;48.90;;;;;;5055442;28;20025;-78
2021/05/05 09:47:59;;;;;;;11.07;2.33;;;8.80;53.30;;;;;;5055281;28;20025;-78
2021/05/05 09:50:33;;;;;;;6.55;1.60;;;8.80;55.40;;;;;;5055600;28;20025;-78
2021/05/05 09:53:17;;;;;;;9.65;2.25;;;8.70;55.80;;;;;;5055573;28;20159;-80
2021/05/05 09:55:46;;;;;;;8.38;1.90;;;8.50;56.50;;;;;;5056010;28;20028;-79
2021/05/05 09:58:32;;;;;;;13.52;2.55;;;8.30;56.70;;;;;;5055136;28;20040;-79
2021/05/05 10:01:04;;;;;;;;;;;8.30;57.90;;;;;;5055377;28;20071;-79
2021/05/05 10:03:48;;;;;;;7.43;1.50;;;8.60;57.00;;;;;;5055095;28;20323;-78
2021/05/05 10:06:20;;;;;;;7.78;1.63;;;8.80;55.70;;;;;;5054927;28;20023;-79
2021/05/05 10:08:51;;;;;;;4.15;1.30;;;9.10;55.40;;;;;;5054881;28;20071;-79
2021/05/05 10:11:21;;;;;;;4.75;1.23;;;9.30;55.50;;;;;;5054621;28;20024;-78
2021/05/05 10:13:55;;;;;;;7.20;1.70;;;9.50;49.20;;;;;;5054637;28;20108;-79
2021/05/05 10:16:22;;;;;;;5.88;1.10;;;9.30;48.00;;;;;;5054363;28;20024;-79
2021/05/05 10:18:48;;;;;;;8.60;1.38;;;9.30;48.30;;;;;;5054791;28;20100;-79
2021/05/05 10:21:18;;;;;;;3.63;1.10;;;9.40;47.50;;;;;;5054464;28;20423;-79
2021/05/05 10:23:44;;;;;;;4.40;1.58;;;9.40;46.80;;;;;;5054365;28;20047;-79
2021/05/05 10:26:11;;;;;;;5.75;1.50;;;9.50;46.00;;;;;;5054550;28;20033;-78
2021/05/05 10:28:38;;;;;;;6.28;1.65;;;9.40;45.90;;;;;;5054274;28;20059;-79
2021/05/05 10:31:15;;;;;;;7.80;1.25;;;9.50;46.30;;;;;;5054581;28;20025;-77
2021/05/05 10:33:42;;;;;;;6.53;1.83;;;9.70;46.20;;;;;;5054609;28;20036;-79
2021/05/05 10:36:30;;;;;;;6.55;1.27;;;9.70;45.90;;;;;;5054144;28;20021;-78
2021/05/05 10:38:56;;;;;;;6.38;1.35;;;9.80;46.70;;;;;;5054146;28;20093;-78
2021/05/05 10:41:22;;;;;;;6.22;1.40;;;9.70;45.30;;;;;;5054249;28;20045;-78
2021/05/05 10:43:56;;;;;;;8.20;1.20;;;9.80;45.20;;;;;;5053398;28;20029;-78
2021/05/05 10:46:33;;;;;;;6.65;1.48;;;9.90;43.90;;;;;;5054340;28;20123;-79
2021/05/05 10:49:11;;;;;;;5.80;0.95;;;10.10;41.40;;;;;;5054056;28;20139;-78
2021/05/05 10:51:46;;;;;;;3.97;0.77;;;9.80;40.00;;;;;;5054126;28;20017;-77
2021/05/05 10:54:20;;;;;;;2.90;0.90;;;9.80;40.60;;;;;;5054118;28;20082;-77
2021/05/05 10:57:08;;;;;;;3.45;0.80;;;10.30;39.60;;;;;;5053833;28;20060;-77
2021/05/05 11:00:09;;;;;;;3.78;0.90;;;10.50;39.30;;;;;;5053924;28;20047;-77
2021/05/05 11:02:51;;;;;;;3.33;0.90;;;10.70;39.30;;;;;;5054066;28;20020;-77
2021/05/05 11:05:33;;;;;;;5.15;0.88;;;10.90;39.30;;;;;;5053836;28;20508;-77
2021/05/05 11:08:01;;;;;;;4.65;0.90;;;10.60;37.70;;;;;;5053713;28;20025;-76
2021/05/05 11:10:36;;;;;;;4.60;0.90;;;10.40;37.40;;;;;;5053800;28;20029;-77
2021/05/05 11:13:03;;;;;;;1.50;0.90;;;10.60;37.30;;;;;;5051665;28;20025;-76
2021/05/05 11:15:44;;;;;;;2.38;0.63;;;10.80;36.80;;;;;;5053599;28;20469;-76
2021/05/05 11:18:29;;;;;;;2.15;0.90;;;11.10;36.80;;;;;;5053591;28;20501;-76
2021/05/05 11:21:08;;;;;;;3.17;0.80;;;11.20;36.00;;;;;;5053698;28;20062;-77
2021/05/05 11:23:44;;;;;;;4.28;0.70;;;11.40;36.30;;;;;;5054086;28;20054;-77
2021/05/05 11:26:33;;;;;;;9.30;1.33;;;11.60;36.80;;;;;;5053508;28;20474;-76
2021/05/05 11:29:02;;;;;;;7.72;0.90;;;11.50;36.20;;;;;;5053289;28;20095;-77
2021/05/05 11:31:49;;;;;;;3.30;1.30;;;11.10;35.70;;;;;;5053469;28;20017;-77
2021/05/05 11:34:20;;;;;;;4.18;1.10;;;11.20;36.00;;;;;;5053318;28;20061;-77
2021/05/05 11:36:55;;;;;;;3.17;0.77;;;11.10;35.60;;;;;;5052252;28;20064;-77
2021/05/05 11:39:25;;;;;;;4.00;0.60;;;11.20;35.60;;;;;;5053368;28;20049;-76
2021/05/05 11:41:58;;;;;;;2.67;1.00;;;11.30;35.30;;;;;;5051980;28;20074;-77
2021/05/05 11:44:35;;;;;;;3.97;1.17;;;11.30;34.90;;;;;;5053394;28;20021;-77
2021/05/05 11:47:07;;;;;;;3.33;0.80;;;11.20;34.70;;;;;;5053286;28;20053;-78
2021/05/05 11:49:42;;;;;;;7.55;1.10;;;10.80;34.80;;;;;;5053568;28;20047;-79
2021/05/05 11:52:19;;;;;;;1.02;0.60;;;10.70;35.90;;;;;;5053190;28;20017;-77
2021/05/05 11:54:49;;;;;;;4.28;1.00;;;11.00;36.30;;;;;;5052776;28;20059;-76
2021/05/05 11:57:16;;;;;;;2.67;0.93;;;11.00;36.50;;;;;;5052798;28;20103;-77
2021/05/05 11:59:42;;;;;;;4.97;1.98;;;11.00;36.90;;;;;;5053483;28;20083;-76
2021/05/05 12:02:08;;;;;;;3.53;0.80;;;10.70;37.60;;;;;;5053651;28;20021;-77
2021/05/05 12:04:41;;;;;;;2.45;0.75;;;10.70;38.10;;;;;;5053028;28;20116;-76
2021/05/05 12:07:11;;;;;;;3.22;0.65;;;10.20;38.50;;;;;;5053553;28;20021;-76
2021/05/05 12:09:41;;;;;;;3.25;1.00;;;10.10;39.30;;;;;;5053443;28;20036;-76
2021/05/05 12:12:23;;;;;;;3.58;1.00;;;9.90;40.60;;;;;;5052844;28;20378;-76
2021/05/05 12:14:54;;;;;;;5.32;1.02;;;9.80;42.30;;;;;;5053284;28;20025;-76
2021/05/05 12:17:29;;;;;;;2.67;0.90;;;9.30;44.50;;;;;;5051252;28;20024;-76
2021/05/05 12:20:18;;;;;;;3.72;0.88;;;8.60;50.50;;;;;;5051018;28;20116;-76
2021/05/05 12:22:55;;;;;;;4.57;1.00;;;8.10;58.70;;;;;;5052759;28;20074;-75
2021/05/05 12:25:23;;;;;;;6.55;1.52;;;8.10;64.60;;;;;;5052722;28;20021;-77
2021/05/05 12:27:56;;;;;;;5.47;1.15;;;8.40;68.40;;;;;;5053190;28;20358;-76
2021/05/05 12:30:22;;;;;;;3.25;1.02;;;9.00;68.00;;;;;;5052778;28;20025;-76
2021/05/05 12:32:50;;;;;;;3.13;0.75;;;9.10;65.80;;;;;;5052736;28;20021;-76
2021/05/05 12:35:26;;;;;;;3.55;1.05;;;9.40;64.30;;;;;;5055438;28;20504;-77
2021/05/05 12:37:54;;;;;;;2.25;1.02;;;9.80;64.80;;;;;;5052700;28;20067;-77
2021/05/05 12:40:27;;;;;;;2.58;0.77;;;10.30;62.30;;;;;;5053516;28;20040;-78
2021/05/05 12:42:54;;;;;;;1.95;0.70;;;10.70;58.60;;;;;;5052988;28;20375;-76
2021/05/05 12:45:21;;;;;;;3.85;0.68;;;10.80;55.80;;;;;;5053209;28;20013;-76
2021/05/05 12:47:48;;;;;;;1.85;0.50;;;10.60;51.60;;;;;;5052533;28;20025;-77
2021/05/05 12:50:15;;;;;;;2.88;0.82;;;10.20;51.60;;;;;;5052620;28;20559;-76
2021/05/05 12:52:42;;;;;;;2.38;0.70;;;9.60;53.50;;;;;;5052595;28;20100;-76
2021/05/05 12:55:40;;;;;;;3.75;0.90;;;9.00;57.20;;;;;;5052480;28;20029;-76
2021/05/05 12:58:13;;;;;;;0.80;0.50;;;8.30;62.90;;;;;;5051957;28;20440;-76
2021/05/05 13:00:42;;;;;;;2.40;0.70;;;7.70;67.90;;;;;;5052433;28;20029;-78
2021/05/05 13:03:13;;;;;;;2.10;0.70;;;7.40;69.40;;;;;;5052182;28;20066;-76
2021/05/05 13:05:58;;;;;;;0.93;0.73;;;7.40;71.20;;;;;;5052292;28;20040;-77
2021/05/05 13:08:58;;;;;;;2.45;0.63;;;7.90;71.70;;;;;;5056065;28;20390;-77
2021/05/05 13:11:33;;;;;;;8.65;4.00;;;8.50;72.10;;;;;;5056259;28;20496;-77
2021/05/05 13:14:04;;;;;;;1.63;0.80;;;8.80;71.10;;;;;;5056356;28;20371;-76